Aeroporto :
LOGIN :

Iscrizione | Disclaimer

   EN    FR    IT 

 










Sommario :    VFR   VFR Marginale   IFR   IFR Intensivo   IFR Molto Intensivo
Visibilità : 
Base nubi : 
>= 8 km
>= 3000ft
5 / 8 km
1000 / 3000 ft
1500m / 5 km
500 / 1000 ft
800 / 1500m
200 / 500 ft
< 800m
< 200 ft
Simboli :   Temporali  Nebbia  Neve Forte  Precipitazioni Forti  Vento > 20 kt
SIGMETs :   Varie  Temporali  Ghiacco  Turbolenza  Onda orograficha  Ceneri Vulcaniche







- Altitudine del aeroporto : 408 ft
- Codice IATA : SOB


LHSM - Sarmellek Balaton

ULTIMO METAR :
  • 230615Z AUTO 33005KT 9000 NCD 20/18 Q1024

METARs OBSOLETI :
  • 230545Z AUTO 33006KT 8000 NCD 20/17 Q1024
  • 230515Z AUTO 33005KT 8000 NCD 19/17 Q1024
  • 230445Z AUTO 34006KT 7000 NSC 18/17 Q1024
  • 230415Z AUTO 33006KT 7000 NSC 18/17 Q1024
  • 230345Z AUTO 33005KT 8000 NCD 18/17 Q1024

TAF TAF LHSM
Valido dal 23 a 06 ore il 23 a 15 ore UTC


230515Z 2306/2315 01006KT 8000 NSC
PROB40
TEMPO 2306/2315 4000 SHRA SCT030CB BKN060
PROB30
TEMPO 2306/2315 VRB10G25KT TSRA
Nessun NOTAM noto per questo aeroporto.



MetMap, La meteo Aeronautica in un colpo d'occhio ! - Copyright ORBIFLY Dicembre 2007 - Disclaimer

ORBIFLY MET'MAP TEAM :

Programmazione e sviluppo : Alexandra Zaïnal
Concezione e sviluppo : Baudouin d'Aumeries
Co-Programmazione e sviluppo : Marc-Olivier Méhu
Supporto tecnico e logistico : Manuel Goepfert
Aiuto per la traduzione : Arnaldo La Scala

Contatto : metmap@orbifly.com




FONTI E CREDITI :

   NOAA